Terminal Aerodrome Forecast
Issued by NWS

Home | Current Version | Previous Version | Graphics & Text | Print | Product List | Glossary On
Versions: 1 2 3 4 5 6 7 8 9 10 11 12 13 14 15 16 17 18 19 20 21
414
FTUS43 KTOP 232032 AAA
TAFFOE
TAF AMD
KFOE 232032Z 2321/2418 33011KT P6SM VCTS BKN050CB
     FM232200 32011KT P6SM VCSH BKN050
      TEMPO 2322/2402 -SHRA BKN040
     FM240200 32009KT P6SM SCT025 BKN035=

USA.gov is the U.S. government's official web portal to all federal, state and local government web resources and services.